createdAt,value
2017-01-22T00:00:06.873Z,0
2017-01-22T00:01:15.560Z,0
2017-01-22T00:02:24.242Z,0
2017-01-22T00:03:32.930Z,0
2017-01-22T00:04:41.618Z,0
2017-01-22T00:05:50.308Z,0
2017-01-22T00:06:58.993Z,0
2017-01-22T00:08:07.684Z,0
2017-01-22T00:09:16.368Z,0
2017-01-22T00:10:25.053Z,0
2017-01-22T00:11:33.736Z,0
2017-01-22T00:12:42.427Z,0
2017-01-22T00:13:51.108Z,0
2017-01-22T00:14:59.804Z,0
2017-01-22T00:16:08.492Z,0
2017-01-22T00:17:17.172Z,0
2017-01-22T00:18:25.864Z,0
2017-01-22T00:19:34.550Z,0
2017-01-22T00:20:43.241Z,0
2017-01-22T00:21:51.930Z,0
2017-01-22T00:23:00.667Z,0
2017-01-22T00:24:09.353Z,0
2017-01-22T00:25:18.037Z,0
2017-01-22T00:26:26.720Z,0
2017-01-22T00:27:35.411Z,0
2017-01-22T00:28:44.095Z,0
2017-01-22T00:29:52.777Z,0
2017-01-22T00:31:01.461Z,0
2017-01-22T00:32:10.155Z,0
2017-01-22T00:33:18.840Z,0
2017-01-22T00:34:27.529Z,0
2017-01-22T00:35:36.237Z,0
2017-01-22T00:36:44.922Z,0
2017-01-22T00:37:53.607Z,0
2017-01-22T00:39:02.290Z,0
2017-01-22T00:40:11.381Z,0
2017-01-22T00:41:20.094Z,0
2017-01-22T00:42:28.787Z,0
2017-01-22T00:43:37.474Z,0
2017-01-22T00:44:46.161Z,0
2017-01-22T00:45:54.848Z,0
2017-01-22T00:47:03.533Z,0
2017-01-22T00:48:12.213Z,0
2017-01-22T00:49:20.896Z,0
2017-01-22T00:50:29.584Z,0
2017-01-22T00:51:38.269Z,0
2017-01-22T00:52:46.957Z,0
2017-01-22T00:53:55.649Z,0
2017-01-22T00:55:04.336Z,0
2017-01-22T00:56:13.419Z,0
2017-01-22T00:57:22.107Z,0
2017-01-22T00:58:30.791Z,0
2017-01-22T00:59:39.478Z,0
2017-01-22T01:00:48.168Z,0
2017-01-22T01:01:56.854Z,0
2017-01-22T01:03:05.538Z,0
2017-01-22T01:04:14.225Z,0
2017-01-22T01:05:22.909Z,0
2017-01-22T01:06:31.596Z,0
2017-01-22T01:07:40.280Z,0
2017-01-22T01:08:48.970Z,0
2017-01-22T01:09:57.660Z,0
2017-01-22T01:11:06.338Z,0
2017-01-22T01:12:15.025Z,0
2017-01-22T01:13:23.712Z,0
2017-01-22T01:14:32.394Z,0
2017-01-22T01:15:41.082Z,0
2017-01-22T01:16:49.767Z,0
2017-01-22T01:17:58.451Z,0
2017-01-22T01:19:07.132Z,0
2017-01-22T01:20:15.813Z,0
2017-01-22T01:21:24.497Z,0
2017-01-22T01:22:33.181Z,0
2017-01-22T01:23:41.864Z,0
2017-01-22T01:24:50.545Z,0
2017-01-22T01:25:59.232Z,0
2017-01-22T01:27:07.918Z,0
2017-01-22T01:28:16.602Z,0
2017-01-22T01:29:25.293Z,0
2017-01-22T01:30:33.978Z,0
2017-01-22T01:31:42.662Z,0
2017-01-22T01:32:51.351Z,0
2017-01-22T01:34:00.038Z,0
2017-01-22T01:35:08.726Z,0
2017-01-22T01:36:17.409Z,0
2017-01-22T01:37:26.094Z,0
2017-01-22T01:38:35.174Z,0
2017-01-22T01:39:43.857Z,0
2017-01-22T01:40:52.540Z,0
2017-01-22T01:42:01.226Z,0
2017-01-22T01:43:09.911Z,0
2017-01-22T01:44:18.594Z,0
2017-01-22T01:45:27.282Z,0
2017-01-22T01:46:35.972Z,0
2017-01-22T01:47:44.669Z,0
2017-01-22T01:48:53.354Z,0
2017-01-22T01:50:02.033Z,0
2017-01-22T01:51:10.717Z,0
2017-01-22T01:52:19.405Z,0
2017-01-22T01:53:28.085Z,0
2017-01-22T01:54:36.770Z,0
2017-01-22T01:55:45.454Z,0
2017-01-22T01:56:54.141Z,0
2017-01-22T01:58:02.827Z,0
2017-01-22T01:59:11.515Z,0
2017-01-22T02:00:20.228Z,0
2017-01-22T02:01:28.910Z,0
2017-01-22T02:02:37.593Z,0
2017-01-22T02:03:46.278Z,0
2017-01-22T02:04:54.964Z,0
2017-01-22T02:06:03.646Z,0
2017-01-22T02:07:12.334Z,0
2017-01-22T02:08:21.013Z,0
2017-01-22T02:09:29.693Z,0
2017-01-22T02:10:38.377Z,0
2017-01-22T02:11:47.084Z,0
2017-01-22T02:12:55.763Z,0
2017-01-22T02:14:04.452Z,0
2017-01-22T02:15:13.133Z,0
2017-01-22T02:16:21.817Z,0
2017-01-22T02:17:30.502Z,0
2017-01-22T02:18:39.200Z,0
2017-01-22T02:19:47.895Z,0
2017-01-22T02:20:56.578Z,0
2017-01-22T02:22:05.266Z,0
2017-01-22T02:23:13.958Z,0
2017-01-22T02:24:22.664Z,0
2017-01-22T02:25:31.352Z,0
2017-01-22T02:26:40.038Z,0
2017-01-22T02:27:48.723Z,0
2017-01-22T02:28:57.403Z,0
2017-01-22T02:30:06.484Z,0
2017-01-22T02:31:15.171Z,0
2017-01-22T02:32:23.856Z,0
2017-01-22T02:33:32.541Z,0
2017-01-22T02:34:41.233Z,0
2017-01-22T02:35:49.922Z,0
2017-01-22T02:36:58.613Z,0
2017-01-22T02:38:07.301Z,0
2017-01-22T02:39:15.987Z,0
2017-01-22T02:40:24.679Z,0
2017-01-22T02:41:33.368Z,0
2017-01-22T02:42:42.052Z,0
2017-01-22T02:43:50.735Z,0
2017-01-22T02:44:59.422Z,0
2017-01-22T02:46:08.111Z,0
2017-01-22T02:47:16.802Z,0
2017-01-22T02:48:25.490Z,0
2017-01-22T02:49:34.175Z,0
2017-01-22T02:50:42.859Z,0
2017-01-22T02:51:51.545Z,0
2017-01-22T02:53:00.227Z,0
2017-01-22T02:54:08.920Z,0
2017-01-22T02:55:17.606Z,0
2017-01-22T02:56:26.689Z,0
2017-01-22T02:57:35.371Z,0
2017-01-22T02:58:44.057Z,0
2017-01-22T02:59:52.742Z,0
2017-01-22T03:01:01.434Z,0
2017-01-22T03:02:10.126Z,0
2017-01-22T03:03:21.179Z,0
2017-01-22T03:04:29.861Z,0
2017-01-22T03:05:38.554Z,0
2017-01-22T03:06:47.242Z,0
2017-01-22T03:07:55.953Z,0
2017-01-22T03:09:04.986Z,0
2017-01-22T03:10:13.673Z,0
2017-01-22T03:11:22.364Z,0
2017-01-22T03:12:31.051Z,0
2017-01-22T03:13:39.739Z,0
2017-01-22T03:14:48.424Z,0
2017-01-22T03:15:57.110Z,0
2017-01-22T03:17:05.799Z,0
2017-01-22T03:18:14.488Z,0
2017-01-22T03:19:23.172Z,0
2017-01-22T03:20:31.910Z,0
2017-01-22T03:21:40.598Z,0
2017-01-22T03:22:49.282Z,0
2017-01-22T03:23:57.967Z,0
2017-01-22T03:25:06.681Z,0
2017-01-22T03:26:15.366Z,0
2017-01-22T03:27:24.050Z,0
2017-01-22T03:28:32.735Z,0
2017-01-22T03:29:41.419Z,0
2017-01-22T03:30:50.104Z,0
2017-01-22T03:31:58.788Z,0
2017-01-22T03:33:07.480Z,0
2017-01-22T03:34:16.163Z,0
2017-01-22T03:35:24.844Z,0
2017-01-22T03:36:33.527Z,0
2017-01-22T03:37:42.212Z,0
2017-01-22T03:38:50.901Z,0
2017-01-22T03:39:59.624Z,0
2017-01-22T03:41:08.309Z,0
2017-01-22T03:42:16.999Z,0
2017-01-22T03:43:25.712Z,0
2017-01-22T03:44:34.399Z,0
2017-01-22T03:45:43.084Z,0
2017-01-22T03:46:51.775Z,0
2017-01-22T03:48:00.458Z,0
2017-01-22T03:49:09.144Z,0
2017-01-22T03:50:17.825Z,0
2017-01-22T03:51:26.504Z,0
2017-01-22T03:52:35.188Z,0
2017-01-22T03:53:43.873Z,0
2017-01-22T03:54:52.556Z,0
2017-01-22T03:56:01.238Z,0
2017-01-22T03:57:09.919Z,0
2017-01-22T03:58:18.605Z,0
2017-01-22T03:59:27.289Z,0
2017-01-22T04:00:35.974Z,0
2017-01-22T04:01:44.664Z,0
2017-01-22T04:02:53.350Z,0
2017-01-22T04:04:02.034Z,0
2017-01-22T04:05:10.722Z,0
2017-01-22T04:06:19.408Z,0
2017-01-22T04:07:28.092Z,0
2017-01-22T04:08:36.775Z,0
2017-01-22T04:09:45.855Z,0
2017-01-22T04:10:54.542Z,0
2017-01-22T04:12:03.228Z,0
2017-01-22T04:13:11.915Z,0
2017-01-22T04:14:20.601Z,0
2017-01-22T04:15:29.280Z,0
2017-01-22T04:16:37.966Z,0
2017-01-22T04:17:46.654Z,0
2017-01-22T04:18:55.337Z,0
2017-01-22T04:20:04.028Z,0
2017-01-22T04:21:12.711Z,0
2017-01-22T04:22:21.397Z,0
2017-01-22T04:23:30.079Z,0
2017-01-22T04:24:38.761Z,0
2017-01-22T04:25:47.476Z,0
2017-01-22T04:26:56.163Z,0
2017-01-22T04:28:04.851Z,0
2017-01-22T04:29:13.539Z,0
2017-01-22T04:30:22.223Z,0
2017-01-22T04:31:30.914Z,0
2017-01-22T04:32:39.649Z,0
2017-01-22T04:33:48.332Z,0
2017-01-22T04:34:57.015Z,0
2017-01-22T04:36:05.700Z,0
2017-01-22T04:37:14.385Z,0
2017-01-22T04:38:23.069Z,0
2017-01-22T04:39:31.782Z,0
2017-01-22T04:40:41.564Z,0
2017-01-22T04:41:50.253Z,0
2017-01-22T04:42:58.938Z,0
2017-01-22T04:44:07.646Z,0
2017-01-22T04:45:16.335Z,0
2017-01-22T04:46:25.072Z,0
2017-01-22T04:47:33.761Z,0
2017-01-22T04:48:42.451Z,0
2017-01-22T04:49:51.140Z,0
2017-01-22T04:50:59.847Z,0
2017-01-22T04:52:08.579Z,0
2017-01-22T04:53:17.263Z,0
2017-01-22T04:54:25.948Z,0
2017-01-22T04:55:34.636Z,0
2017-01-22T04:56:43.323Z,0
2017-01-22T04:57:52.107Z,0
2017-01-22T04:59:00.785Z,0
2017-01-22T05:00:09.473Z,0
2017-01-22T05:01:18.158Z,0
2017-01-22T05:02:26.866Z,0
2017-01-22T05:03:35.601Z,0
2017-01-22T05:04:44.291Z,0
2017-01-22T05:05:52.982Z,0
2017-01-22T05:07:01.666Z,0
2017-01-22T05:08:10.379Z,0
2017-01-22T05:09:19.119Z,0
2017-01-22T05:10:27.798Z,0
2017-01-22T05:11:36.490Z,0
2017-01-22T05:12:45.172Z,0
2017-01-22T05:13:53.853Z,0
2017-01-22T05:15:02.596Z,0
2017-01-22T05:16:11.284Z,0
2017-01-22T05:17:19.976Z,0
2017-01-22T05:18:28.659Z,0
2017-01-22T05:19:37.341Z,0
2017-01-22T05:20:46.073Z,0
2017-01-22T05:21:54.757Z,0
2017-01-22T05:23:03.435Z,0
2017-01-22T05:24:12.123Z,0
2017-01-22T05:25:20.810Z,0
2017-01-22T05:26:29.544Z,0
2017-01-22T05:27:38.234Z,0
2017-01-22T05:28:46.919Z,0
2017-01-22T05:29:55.599Z,0
2017-01-22T05:31:04.282Z,0
2017-01-22T05:32:13.015Z,0
2017-01-22T05:33:21.702Z,0
2017-01-22T05:34:30.387Z,0
2017-01-22T05:35:39.079Z,0
2017-01-22T05:36:47.782Z,0
2017-01-22T05:37:56.518Z,0
2017-01-22T05:39:05.204Z,0
2017-01-22T05:40:13.891Z,0
2017-01-22T05:41:22.574Z,0
2017-01-22T05:42:31.258Z,0
2017-01-22T05:43:40.045Z,0
2017-01-22T05:44:48.732Z,0
2017-01-22T05:45:57.440Z,0
2017-01-22T05:47:06.122Z,0
2017-01-22T05:48:14.805Z,0
2017-01-22T05:49:23.537Z,0
2017-01-22T05:50:32.618Z,0
2017-01-22T05:51:41.309Z,0
2017-01-22T05:52:49.993Z,0
2017-01-22T05:53:58.683Z,0
2017-01-22T05:55:07.815Z,0
2017-01-22T05:56:16.502Z,0
2017-01-22T05:57:25.190Z,0
2017-01-22T05:58:33.883Z,0
2017-01-22T05:59:42.571Z,0
2017-01-22T06:00:51.313Z,0
2017-01-22T06:01:59.994Z,0
2017-01-22T06:03:08.686Z,0
2017-01-22T06:04:17.398Z,0
2017-01-22T06:05:26.084Z,0
2017-01-22T06:06:34.824Z,0
2017-01-22T06:07:43.513Z,0
2017-01-22T06:08:52.202Z,0
2017-01-22T06:10:00.889Z,0
2017-01-22T06:11:09.578Z,0
2017-01-22T06:12:22.097Z,0
2017-01-22T06:13:30.788Z,0
2017-01-22T06:14:39.468Z,0
2017-01-22T06:15:48.152Z,0
2017-01-22T06:16:56.838Z,0
2017-01-22T06:18:05.878Z,0
2017-01-22T06:19:14.563Z,0
2017-01-22T06:20:23.250Z,0
2017-01-22T06:21:31.938Z,0
2017-01-22T06:22:40.662Z,0
2017-01-22T06:23:50.998Z,0
2017-01-22T06:24:59.711Z,0
2017-01-22T06:26:08.398Z,0
2017-01-22T06:27:17.083Z,0
2017-01-22T06:28:25.765Z,0
2017-01-22T06:29:34.484Z,0
2017-01-22T06:30:43.170Z,0
2017-01-22T06:31:51.856Z,0
2017-01-22T06:33:00.541Z,0
2017-01-22T06:34:09.227Z,0
2017-01-22T06:35:17.915Z,0
2017-01-22T06:36:26.603Z,0
2017-01-22T06:37:35.288Z,0
2017-01-22T06:38:44.005Z,0
2017-01-22T06:39:52.695Z,0
2017-01-22T06:41:01.382Z,0
2017-01-22T06:42:10.065Z,0
2017-01-22T06:43:18.752Z,0
2017-01-22T06:44:27.444Z,0
2017-01-22T06:45:36.126Z,0
2017-01-22T06:46:44.837Z,0
2017-01-22T06:47:53.522Z,0
2017-01-22T06:49:02.209Z,0
2017-01-22T06:50:10.896Z,0
2017-01-22T06:51:19.581Z,0
2017-01-22T06:52:28.272Z,0
2017-01-22T06:53:36.957Z,0
2017-01-22T06:54:45.648Z,0
2017-01-22T06:55:54.332Z,0
2017-01-22T06:57:03.014Z,0
2017-01-22T06:58:11.711Z,0
2017-01-22T06:59:20.396Z,0
2017-01-22T07:00:29.480Z,0
2017-01-22T07:01:38.172Z,0
2017-01-22T07:02:46.854Z,0
2017-01-22T07:03:55.537Z,0
2017-01-22T07:05:04.223Z,0
2017-01-22T07:06:12.907Z,0
2017-01-22T07:07:21.594Z,0
2017-01-22T07:08:30.275Z,0
2017-01-22T07:09:38.961Z,0
2017-01-22T07:10:47.645Z,0
2017-01-22T07:11:56.331Z,0
2017-01-22T07:13:05.021Z,0
2017-01-22T07:14:13.707Z,0
2017-01-22T07:15:22.392Z,0
2017-01-22T07:16:31.092Z,0
2017-01-22T07:17:39.782Z,0
2017-01-22T07:18:48.464Z,0
2017-01-22T07:19:57.150Z,0
2017-01-22T07:21:05.830Z,0
2017-01-22T07:22:14.517Z,0
2017-01-22T07:23:23.200Z,0
2017-01-22T07:24:31.908Z,0
2017-01-22T07:25:40.592Z,0
2017-01-22T07:26:49.280Z,0
2017-01-22T07:27:57.969Z,0
2017-01-22T07:29:06.650Z,0
2017-01-22T07:30:15.334Z,0
2017-01-22T07:31:24.025Z,0
2017-01-22T07:32:32.720Z,0
2017-01-22T07:33:41.408Z,0
2017-01-22T07:34:50.097Z,0
2017-01-22T07:35:58.805Z,0
2017-01-22T07:37:07.510Z,0
2017-01-22T07:38:16.197Z,0
2017-01-22T07:39:25.283Z,0
2017-01-22T07:40:33.969Z,0
2017-01-22T07:41:42.654Z,0
2017-01-22T07:42:51.335Z,0
2017-01-22T07:44:00.039Z,0
2017-01-22T07:45:08.731Z,0
2017-01-22T07:46:17.412Z,0
2017-01-22T07:47:26.095Z,0
2017-01-22T07:48:34.777Z,0
2017-01-22T07:49:43.467Z,0
2017-01-22T07:50:52.149Z,0
2017-01-22T07:52:00.836Z,5
2017-01-22T07:53:09.522Z,5
2017-01-22T07:54:18.208Z,5
2017-01-22T07:55:26.894Z,5
2017-01-22T07:56:35.646Z,5
2017-01-22T07:57:44.332Z,5
2017-01-22T07:58:53.022Z,5
2017-01-22T08:00:01.707Z,5
2017-01-22T08:01:10.392Z,5
2017-01-22T08:02:19.080Z,5
2017-01-22T08:03:27.783Z,5
2017-01-22T08:04:36.477Z,5
2017-01-22T08:05:45.190Z,10
2017-01-22T08:06:53.878Z,10
2017-01-22T08:08:02.570Z,10
2017-01-22T08:09:11.261Z,10
2017-01-22T08:10:19.948Z,10
2017-01-22T08:11:28.632Z,10
2017-01-22T08:12:40.318Z,10
2017-01-22T08:13:49.005Z,10
2017-01-22T08:14:57.688Z,15
2017-01-22T08:16:06.375Z,15
2017-01-22T08:17:15.058Z,15
2017-01-22T08:18:24.093Z,15
2017-01-22T08:19:32.779Z,15
2017-01-22T08:20:41.471Z,20
2017-01-22T08:21:50.156Z,20
2017-01-22T08:22:58.840Z,20
2017-01-22T08:24:09.885Z,20
2017-01-22T08:25:18.569Z,20
2017-01-22T08:26:27.251Z,20
2017-01-22T08:27:35.932Z,20
2017-01-22T08:28:44.619Z,20
2017-01-22T08:29:53.656Z,25
2017-01-22T08:31:02.349Z,25
2017-01-22T08:32:11.036Z,25
2017-01-22T08:33:19.747Z,25
2017-01-22T08:34:28.434Z,25
2017-01-22T08:35:37.474Z,25
2017-01-22T08:36:46.158Z,25
2017-01-22T08:37:54.839Z,25
2017-01-22T08:39:03.929Z,25
2017-01-22T08:40:12.641Z,25
2017-01-22T08:41:21.677Z,30
2017-01-22T08:42:30.367Z,30
2017-01-22T08:43:39.059Z,30
2017-01-22T08:44:47.748Z,30
2017-01-22T08:45:56.441Z,30
2017-01-22T08:47:05.183Z,30
2017-01-22T08:48:13.862Z,30
2017-01-22T08:49:22.548Z,35
2017-01-22T08:50:31.231Z,35
2017-01-22T08:51:39.914Z,35
2017-01-22T08:52:48.647Z,35
2017-01-22T08:53:57.334Z,35
2017-01-22T08:55:06.023Z,35
2017-01-22T08:56:14.706Z,40
2017-01-22T08:57:23.389Z,40
2017-01-22T08:58:32.523Z,45
2017-01-22T08:59:41.210Z,40
2017-01-22T09:00:49.899Z,40
2017-01-22T09:01:58.584Z,45
2017-01-22T09:03:07.270Z,45
2017-01-22T09:04:16.007Z,45
2017-01-22T09:05:24.693Z,45
2017-01-22T09:06:33.381Z,45
2017-01-22T09:07:42.095Z,45
2017-01-22T09:08:50.794Z,50
2017-01-22T09:09:59.534Z,50
2017-01-22T09:11:08.224Z,55
2017-01-22T09:12:16.908Z,55
2017-01-22T09:13:25.592Z,60
2017-01-22T09:14:34.277Z,60
2017-01-22T09:15:43.812Z,65
2017-01-22T09:16:52.495Z,65
2017-01-22T09:18:01.177Z,60
2017-01-22T09:19:09.865Z,60
2017-01-22T09:20:18.551Z,65
2017-01-22T09:22:55.348Z,65
2017-01-22T09:24:04.039Z,70
2017-01-22T09:25:13.124Z,70
2017-01-22T09:26:21.809Z,70
2017-01-22T09:27:30.846Z,75
2017-01-22T09:28:39.536Z,75
2017-01-22T09:29:48.220Z,80
2017-01-22T09:30:56.913Z,80
2017-01-22T09:32:05.596Z,80
2017-01-22T09:33:14.334Z,80
2017-01-22T09:34:23.023Z,80
2017-01-22T09:35:31.707Z,75
2017-01-22T09:36:40.400Z,75
2017-01-22T09:37:49.086Z,75
2017-01-22T09:38:57.821Z,75
2017-01-22T09:40:06.507Z,75
2017-01-22T09:41:15.193Z,75
2017-01-22T09:42:23.876Z,75
2017-01-22T09:43:32.563Z,70
2017-01-22T09:44:41.295Z,70
2017-01-22T09:45:49.984Z,70
2017-01-22T09:46:58.670Z,70
2017-01-22T09:48:07.357Z,70
2017-01-22T09:49:16.045Z,70
2017-01-22T09:50:24.781Z,75
2017-01-22T09:51:33.464Z,75
2017-01-22T09:52:42.146Z,75
2017-01-22T09:53:50.834Z,75
2017-01-22T09:54:59.516Z,75
2017-01-22T09:56:08.255Z,80
2017-01-22T09:57:16.941Z,75
2017-01-22T09:58:25.651Z,75
2017-01-22T09:59:34.342Z,80
2017-01-22T10:00:43.035Z,75
2017-01-22T10:01:51.771Z,75
2017-01-22T10:03:00.455Z,75
2017-01-22T10:04:09.140Z,75
2017-01-22T10:05:17.829Z,75
2017-01-22T10:06:26.521Z,75
2017-01-22T10:07:35.261Z,75
2017-01-22T10:08:43.949Z,75
2017-01-22T10:09:52.631Z,80
2017-01-22T10:11:01.319Z,75
2017-01-22T10:12:10.017Z,80
2017-01-22T10:13:18.758Z,75
2017-01-22T10:14:27.451Z,80
2017-01-22T10:15:36.142Z,85
2017-01-22T10:16:44.833Z,85
2017-01-22T10:17:53.520Z,90
2017-01-22T10:19:02.260Z,90
2017-01-22T10:20:10.950Z,95
2017-01-22T10:21:19.640Z,95
2017-01-22T10:22:28.322Z,95
2017-01-22T10:23:37.016Z,100
2017-01-22T10:24:45.750Z,110
2017-01-22T10:25:54.435Z,110
2017-01-22T10:27:03.122Z,115
2017-01-22T10:28:11.807Z,115
2017-01-22T10:29:20.494Z,115
2017-01-22T10:30:29.228Z,120
2017-01-22T10:31:37.916Z,115
2017-01-22T10:32:46.862Z,115
2017-01-22T10:33:55.561Z,120
2017-01-22T10:35:04.245Z,120
2017-01-22T10:36:12.978Z,125
2017-01-22T10:37:21.660Z,125
2017-01-22T10:38:30.347Z,125
2017-01-22T10:39:39.035Z,125
2017-01-22T10:40:48.124Z,120
2017-01-22T10:41:56.898Z,125
2017-01-22T10:43:05.580Z,120
2017-01-22T10:44:14.265Z,120
2017-01-22T10:45:22.952Z,115
2017-01-22T10:46:31.641Z,115
2017-01-22T10:47:40.376Z,120
2017-01-22T10:48:49.063Z,120
2017-01-22T10:49:57.749Z,115
2017-01-22T10:51:06.438Z,110
2017-01-22T10:52:15.132Z,105
2017-01-22T10:53:23.896Z,105
2017-01-22T10:54:32.607Z,100
2017-01-22T10:55:41.294Z,95
2017-01-22T10:56:49.986Z,95
2017-01-22T10:57:58.675Z,90
2017-01-22T10:59:07.444Z,90
2017-01-22T11:00:16.136Z,90
2017-01-22T11:01:24.830Z,95
2017-01-22T11:02:33.512Z,100
2017-01-22T11:03:42.215Z,100
2017-01-22T11:04:50.956Z,100
2017-01-22T11:05:59.647Z,100
2017-01-22T11:07:08.339Z,100
2017-01-22T11:08:17.024Z,100
2017-01-22T11:09:25.712Z,100
2017-01-22T11:10:34.446Z,105
2017-01-22T11:11:43.161Z,100
2017-01-22T11:12:51.850Z,105
2017-01-22T11:14:00.540Z,105
2017-01-22T11:15:09.235Z,105
2017-01-22T11:16:17.974Z,105
2017-01-22T11:17:26.661Z,105
2017-01-22T11:18:35.345Z,105
2017-01-22T11:19:44.033Z,110
2017-01-22T11:20:52.722Z,110
2017-01-22T11:22:01.486Z,110
2017-01-22T11:23:10.184Z,100
2017-01-22T11:24:18.871Z,95
2017-01-22T11:25:27.555Z,95
2017-01-22T11:26:36.241Z,95
2017-01-22T11:27:45.036Z,95
2017-01-22T11:28:53.726Z,100
2017-01-22T11:30:02.413Z,100
2017-01-22T11:31:11.103Z,100
2017-01-22T11:32:19.790Z,100
2017-01-22T11:33:28.527Z,100
2017-01-22T11:34:37.210Z,95
2017-01-22T11:35:45.897Z,90
2017-01-22T11:36:54.584Z,95
2017-01-22T11:38:03.271Z,90
2017-01-22T11:39:12.007Z,85
2017-01-22T11:40:20.718Z,85
2017-01-22T11:41:29.408Z,90
2017-01-22T11:42:38.106Z,90
2017-01-22T11:43:46.795Z,90
2017-01-22T11:44:55.540Z,95
2017-01-22T11:46:04.227Z,100
2017-01-22T11:47:12.910Z,100
2017-01-22T11:48:21.598Z,105
2017-01-22T11:49:30.286Z,110
2017-01-22T11:50:39.019Z,115
2017-01-22T11:51:47.712Z,120
2017-01-22T11:52:56.417Z,115
2017-01-22T11:54:05.104Z,115
2017-01-22T11:55:13.792Z,115
2017-01-22T11:56:22.539Z,110
2017-01-22T11:57:31.223Z,110
2017-01-22T11:58:39.912Z,115
2017-01-22T11:59:48.619Z,120
2017-01-22T12:00:57.308Z,125
2017-01-22T12:02:06.043Z,135
2017-01-22T12:03:14.728Z,140
2017-01-22T12:04:23.410Z,140
2017-01-22T12:05:32.095Z,135
2017-01-22T12:06:40.783Z,130
2017-01-22T12:07:49.521Z,135
2017-01-22T12:08:58.224Z,135
2017-01-22T12:10:06.909Z,140
2017-01-22T12:11:15.595Z,155
2017-01-22T12:12:24.283Z,165
2017-01-22T12:13:33.017Z,165
2017-01-22T12:14:41.699Z,170
2017-01-22T12:15:50.385Z,175
2017-01-22T12:16:59.076Z,175
2017-01-22T12:18:07.772Z,185
2017-01-22T12:19:16.506Z,175
2017-01-22T12:20:25.191Z,150
2017-01-22T12:21:33.877Z,120
2017-01-22T12:22:42.561Z,105
2017-01-22T12:23:51.250Z,95
2017-01-22T12:24:59.986Z,85
2017-01-22T12:26:08.676Z,80
2017-01-22T12:27:17.363Z,80
2017-01-22T12:28:26.049Z,75
2017-01-22T12:29:34.738Z,80
2017-01-22T12:30:43.479Z,85
2017-01-22T12:31:52.164Z,95
2017-01-22T12:33:00.853Z,105
2017-01-22T12:34:09.544Z,110
2017-01-22T12:35:18.234Z,105
2017-01-22T12:36:26.973Z,110
2017-01-22T12:37:35.659Z,110
2017-01-22T12:38:44.739Z,100
2017-01-22T12:39:53.438Z,95
2017-01-22T12:41:02.522Z,90
2017-01-22T12:42:11.256Z,85
2017-01-22T12:43:19.942Z,80
2017-01-22T12:44:28.630Z,75
2017-01-22T12:45:37.346Z,75
2017-01-22T12:46:46.031Z,75
2017-01-22T12:47:54.764Z,70
2017-01-22T12:49:03.477Z,70
2017-01-22T12:50:12.163Z,80
2017-01-22T12:51:20.848Z,75
2017-01-22T12:52:29.534Z,75
2017-01-22T12:53:38.268Z,75
2017-01-22T12:54:46.953Z,75
2017-01-22T12:55:55.640Z,80
2017-01-22T12:57:04.329Z,80
2017-01-22T12:58:13.022Z,80
2017-01-22T12:59:21.757Z,80
2017-01-22T13:00:30.458Z,80
2017-01-22T13:01:39.143Z,80
2017-01-22T13:02:47.828Z,80
2017-01-22T13:03:56.514Z,75
2017-01-22T13:05:05.251Z,75
2017-01-22T13:06:13.937Z,80
2017-01-22T13:07:22.627Z,80
2017-01-22T13:08:31.318Z,75
2017-01-22T13:09:40.026Z,70
2017-01-22T13:10:48.762Z,70
2017-01-22T13:11:57.447Z,70
2017-01-22T13:13:06.135Z,70
2017-01-22T13:14:14.820Z,65
2017-01-22T13:15:23.507Z,65
2017-01-22T13:16:32.244Z,70
2017-01-22T13:17:40.964Z,65
2017-01-22T13:18:49.651Z,65
2017-01-22T13:19:58.336Z,65
2017-01-22T13:21:07.024Z,70
2017-01-22T13:22:15.764Z,70
2017-01-22T13:23:24.453Z,75
2017-01-22T13:24:33.141Z,75
2017-01-22T13:25:41.830Z,75
2017-01-22T13:26:50.517Z,75
2017-01-22T13:27:59.261Z,75
2017-01-22T13:29:07.949Z,75
2017-01-22T13:30:16.638Z,75
2017-01-22T13:31:25.325Z,75
2017-01-22T13:32:34.015Z,70
2017-01-22T13:33:42.753Z,70
2017-01-22T13:34:51.439Z,70
2017-01-22T13:36:00.132Z,70
2017-01-22T13:37:08.819Z,70
2017-01-22T13:38:17.506Z,70
2017-01-22T13:39:26.244Z,65
2017-01-22T13:40:34.926Z,70
2017-01-22T13:41:43.615Z,70
2017-01-22T13:42:52.298Z,70
2017-01-22T13:44:00.984Z,70
2017-01-22T13:45:09.719Z,70
2017-01-22T13:46:18.432Z,65
2017-01-22T13:47:27.115Z,65
2017-01-22T13:48:35.804Z,70
2017-01-22T13:49:44.493Z,75
2017-01-22T13:50:53.238Z,70
2017-01-22T13:52:01.927Z,65
2017-01-22T13:53:10.615Z,65
2017-01-22T13:54:19.303Z,60
2017-01-22T13:55:27.989Z,60
2017-01-22T13:56:36.725Z,60
2017-01-22T13:57:45.411Z,60
2017-01-22T13:58:54.101Z,55
2017-01-22T14:00:02.787Z,50
2017-01-22T14:01:11.505Z,50
2017-01-22T14:02:20.244Z,50
2017-01-22T14:03:28.927Z,50
2017-01-22T14:04:37.613Z,50
2017-01-22T14:05:46.299Z,50
2017-01-22T14:06:54.981Z,55
2017-01-22T14:08:03.718Z,50
2017-01-22T14:09:12.404Z,50
2017-01-22T14:10:21.091Z,50
2017-01-22T14:11:29.779Z,45
2017-01-22T14:12:38.474Z,45
2017-01-22T14:13:47.218Z,40
2017-01-22T14:14:55.908Z,40
2017-01-22T14:16:04.594Z,35
2017-01-22T14:17:13.278Z,35
2017-01-22T14:18:21.967Z,35
2017-01-22T14:19:30.699Z,40
2017-01-22T14:20:39.390Z,35
2017-01-22T14:21:48.079Z,35
2017-01-22T14:22:56.775Z,35
2017-01-22T14:24:05.460Z,35
2017-01-22T14:25:14.199Z,40
2017-01-22T14:26:22.907Z,40
2017-01-22T14:27:31.598Z,40
2017-01-22T14:28:40.284Z,40
2017-01-22T14:29:48.969Z,40
2017-01-22T14:30:57.699Z,40
2017-01-22T14:32:06.389Z,40
2017-01-22T14:33:15.080Z,35
2017-01-22T14:34:23.768Z,35
2017-01-22T14:35:32.456Z,35
2017-01-22T14:36:41.194Z,35
2017-01-22T14:37:49.881Z,35
2017-01-22T14:38:58.572Z,30
2017-01-22T14:40:07.261Z,30
2017-01-22T14:41:15.944Z,25
2017-01-22T14:42:24.679Z,25
2017-01-22T14:43:33.365Z,20
2017-01-22T14:44:42.055Z,20
2017-01-22T14:45:50.745Z,15
2017-01-22T14:46:59.436Z,15
2017-01-22T14:48:08.176Z,15
2017-01-22T14:49:16.852Z,15
2017-01-22T14:50:25.534Z,10
2017-01-22T14:51:34.222Z,10
2017-01-22T14:52:42.911Z,10
2017-01-22T14:53:51.647Z,10
2017-01-22T14:55:00.349Z,10
2017-01-22T14:56:09.430Z,10
2017-01-22T14:57:18.119Z,10
2017-01-22T14:58:26.804Z,10
2017-01-22T14:59:35.540Z,5
2017-01-22T15:00:44.247Z,5
2017-01-22T15:01:52.935Z,5
2017-01-22T15:03:01.628Z,5
2017-01-22T15:04:10.313Z,5
2017-01-22T15:05:19.055Z,5
2017-01-22T15:06:27.740Z,5
2017-01-22T15:07:36.425Z,5
2017-01-22T15:08:45.112Z,5
2017-01-22T15:09:53.803Z,5
2017-01-22T15:11:02.542Z,5
2017-01-22T15:12:11.230Z,5
2017-01-22T15:13:19.915Z,5
2017-01-22T15:14:28.622Z,5
2017-01-22T15:15:37.307Z,5
2017-01-22T15:16:46.047Z,5
2017-01-22T15:17:54.739Z,5
2017-01-22T15:19:03.425Z,5
2017-01-22T15:20:12.122Z,5
2017-01-22T15:21:20.804Z,5
2017-01-22T15:22:29.536Z,0
2017-01-22T15:23:38.244Z,0
2017-01-22T15:24:46.933Z,0
2017-01-22T15:25:55.622Z,0
2017-01-22T15:27:04.306Z,0
2017-01-22T15:28:13.043Z,0
2017-01-22T15:29:21.735Z,0
2017-01-22T15:30:30.426Z,0
2017-01-22T15:31:39.113Z,0
2017-01-22T15:32:47.803Z,0
2017-01-22T15:33:56.546Z,0
2017-01-22T15:35:05.238Z,0
2017-01-22T15:36:13.933Z,0
2017-01-22T15:37:22.610Z,0
2017-01-22T15:38:31.304Z,0
2017-01-22T15:39:40.038Z,0
2017-01-22T15:40:48.726Z,0
2017-01-22T15:41:57.414Z,0
2017-01-22T15:43:06.099Z,0
2017-01-22T15:44:14.781Z,0
2017-01-22T15:45:23.516Z,0
2017-01-22T15:46:32.202Z,0
2017-01-22T15:47:40.894Z,0
2017-01-22T15:48:49.583Z,0
2017-01-22T15:49:58.279Z,0
2017-01-22T15:51:07.011Z,0
2017-01-22T15:52:15.695Z,0
2017-01-22T15:53:24.380Z,0
2017-01-22T15:54:33.062Z,0
2017-01-22T15:55:41.746Z,0
2017-01-22T15:56:50.487Z,0
2017-01-22T15:57:59.199Z,0
2017-01-22T15:59:07.886Z,0
2017-01-22T16:00:16.571Z,0
2017-01-22T16:01:25.259Z,0
2017-01-22T16:02:33.997Z,0
2017-01-22T16:03:42.684Z,0
2017-01-22T16:04:51.373Z,0
2017-01-22T16:06:00.057Z,0
2017-01-22T16:07:08.764Z,0
2017-01-22T16:08:17.505Z,0
2017-01-22T16:09:26.194Z,0
2017-01-22T16:10:34.883Z,0
2017-01-22T16:11:43.564Z,0
2017-01-22T16:12:52.253Z,0
2017-01-22T16:14:00.989Z,0
2017-01-22T16:15:10.080Z,0
2017-01-22T16:16:18.763Z,0
2017-01-22T16:17:27.447Z,0
2017-01-22T16:18:36.136Z,0
2017-01-22T16:19:44.874Z,0
2017-01-22T16:20:53.564Z,0
2017-01-22T16:22:02.250Z,0
2017-01-22T16:23:10.932Z,0
2017-01-22T16:24:19.617Z,0
2017-01-22T16:25:28.376Z,0
2017-01-22T16:26:37.060Z,0
2017-01-22T16:27:45.753Z,0
2017-01-22T16:28:54.836Z,0
2017-01-22T16:30:03.523Z,0
2017-01-22T16:31:12.655Z,0
2017-01-22T16:32:21.340Z,0
2017-01-22T16:33:30.025Z,0
2017-01-22T16:34:38.712Z,0
2017-01-22T16:35:47.403Z,0
2017-01-22T16:36:56.140Z,0
2017-01-22T16:38:04.823Z,0